createdAt,value
2022-08-03T00:01:45.476Z,95043.88
2022-08-03T00:04:12.524Z,95048.59
2022-08-03T00:06:39.407Z,95047.03
2022-08-03T00:09:07.242Z,95037.00
2022-08-03T00:11:34.533Z,95002.81
2022-08-03T00:14:01.579Z,95024.88
2022-08-03T00:16:28.589Z,95040.69
2022-08-03T00:18:55.370Z,95033.84
2022-08-03T00:21:22.182Z,95018.56
2022-08-03T00:23:51.871Z,95038.53
2022-08-03T00:26:20.470Z,95031.69
2022-08-03T00:28:47.559Z,95038.53
2022-08-03T00:31:14.666Z,95029.63
2022-08-03T00:33:58.275Z,95030.13
2022-08-03T00:36:27.160Z,95032.22
2022-08-03T00:38:54.001Z,95031.44
2022-08-03T00:41:20.732Z,95033.28
2022-08-03T00:43:47.882Z,95018.03
2022-08-03T00:46:19.206Z,95026.97
2022-08-03T00:48:51.757Z,95029.59
2022-08-03T00:51:20.016Z,95024.88
2022-08-03T00:53:46.851Z,95019.59
2022-08-03T00:56:15.321Z,95024.06
2022-08-03T00:58:44.646Z,95019.59
2022-08-03T01:01:12.474Z,95012.25
2022-08-03T01:03:39.775Z,95011.72
2022-08-03T01:06:18.547Z,95016.44
2022-08-03T01:09:02.927Z,95019.56
2022-08-03T01:12:01.259Z,95012.72
2022-08-03T01:14:38.439Z,95014.81
2022-08-03T01:17:14.023Z,95016.91
2022-08-03T01:20:02.134Z,95014.28
2022-08-03T01:23:03.356Z,95017.91
2022-08-03T01:25:54.450Z,95015.28
2022-08-03T01:28:27.414Z,95011.63
2022-08-03T01:30:59.152Z,95009.03
2022-08-03T01:33:37.208Z,95016.63
2022-08-03T01:36:07.913Z,95012.47
2022-08-03T01:38:38.650Z,95002.22
2022-08-03T01:41:11.033Z,95005.91
2022-08-03T01:43:58.914Z,95001.19
2022-08-03T01:46:30.104Z,95009.03
2022-08-03T01:48:58.781Z,95010.56
2022-08-03T01:51:58.662Z,95007.97
2022-08-03T01:54:13.757Z,95003.78
2022-08-03T01:56:42.947Z,95009.56
2022-08-03T01:59:11.803Z,95011.63
2022-08-03T02:02:27.920Z,95007.09
2022-08-03T02:04:28.301Z,95008.91
2022-08-03T02:07:01.077Z,95003.59
2022-08-03T02:09:31.132Z,95013.78
2022-08-03T02:11:58.860Z,95012.72
2022-08-03T02:14:27.372Z,95013.53
2022-08-03T02:16:57.391Z,95015.56
2022-08-03T02:19:26.703Z,95009.72
2022-08-03T02:21:57.234Z,95017.47
2022-08-03T02:24:27.772Z,95016.84
2022-08-03T02:26:56.676Z,95012.06
2022-08-03T02:29:39.800Z,95002.09
2022-08-03T02:32:12.611Z,95007.22
2022-08-03T02:34:42.391Z,95010.41
2022-08-03T02:37:11.852Z,95008.53
2022-08-03T02:39:40.760Z,94991.41
2022-08-03T02:42:12.881Z,95010.31
2022-08-03T02:44:43.809Z,95012.16
2022-08-03T02:47:13.473Z,95016.63
2022-08-03T02:49:50.650Z,95023.94
2022-08-03T02:52:21.667Z,95020.31
2022-08-03T02:54:51.265Z,95016.09
2022-08-03T02:57:20.098Z,95014.53
2022-08-03T02:59:47.585Z,95016.13
2022-08-03T03:02:17.082Z,95024.00
2022-08-03T03:04:55.025Z,95023.47
2022-08-03T03:07:34.667Z,95029.78
2022-08-03T03:10:20.651Z,95025.31
2022-08-03T03:12:49.366Z,95030.31
2022-08-03T03:15:16.205Z,95025.03
2022-08-03T03:17:44.288Z,95037.59
2022-08-03T03:20:12.189Z,95033.13
2022-08-03T03:22:40.542Z,95026.63
2022-08-03T03:25:12.215Z,95031.38
2022-08-03T03:27:40.092Z,95026.97
2022-08-03T03:30:07.643Z,95032.94
2022-08-03T03:32:36.830Z,95039.81
2022-08-03T03:35:05.653Z,95037.19
2022-08-03T03:37:32.821Z,95034.56
2022-08-03T03:39:59.613Z,95033.03
2022-08-03T03:42:26.877Z,95036.47
2022-08-03T03:44:53.832Z,95041.53
2022-08-03T03:47:32.334Z,95036.28
2022-08-03T03:49:59.730Z,95038.38
2022-08-03T03:52:26.572Z,95033.09
2022-08-03T03:54:57.495Z,95038.38
2022-08-03T03:57:27.694Z,95040.41
2022-08-03T03:59:56.018Z,95043.34
2022-08-03T04:02:23.362Z,95049.38
2022-08-03T04:05:08.988Z,95051.47
2022-08-03T04:08:14.591Z,95047.34
2022-08-03T04:11:01.326Z,95058.44
2022-08-03T04:13:37.191Z,95061.13
2022-08-03T04:16:05.259Z,95061.94
2022-08-03T04:18:35.440Z,95067.06
2022-08-03T04:21:05.473Z,95064.22
2022-08-03T04:23:35.889Z,95064.00
2022-08-03T04:26:05.833Z,95072.47
2022-08-03T04:28:33.467Z,95070.91
2022-08-03T04:31:02.547Z,95075.44
2022-08-03T04:33:32.606Z,95071.50
2022-08-03T04:36:03.503Z,95067.63
2022-08-03T04:38:36.547Z,95077.38
2022-08-03T04:41:03.907Z,95081.09
2022-08-03T04:43:33.593Z,95070.09
2022-08-03T04:46:01.795Z,95089.63
2022-08-03T04:48:29.233Z,95088.63
2022-08-03T04:50:56.637Z,95093.88
2022-08-03T04:53:23.699Z,95088.66
2022-08-03T04:55:50.714Z,95091.84
2022-08-03T04:58:17.472Z,95099.22
2022-08-03T05:00:45.652Z,95086.88
2022-08-03T05:03:20.395Z,95099.25
2022-08-03T05:06:01.909Z,95093.72
2022-08-03T05:08:46.203Z,95087.66
2022-08-03T05:11:15.639Z,95091.31
2022-08-03T05:13:43.160Z,95091.03
2022-08-03T05:16:10.155Z,95101.25
2022-08-03T05:18:37.118Z,95089.69
2022-08-03T05:21:05.148Z,95090.72
2022-08-03T05:23:32.061Z,95097.81
2022-08-03T05:25:58.920Z,95100.66
2022-08-03T05:28:25.731Z,95091.16
2022-08-03T05:30:52.507Z,95100.63
2022-08-03T05:33:19.426Z,95105.31
2022-08-03T05:35:57.955Z,95112.16
2022-08-03T05:38:33.971Z,95099.50
2022-08-03T05:41:22.327Z,95090.94
2022-08-03T05:43:54.596Z,95111.88
2022-08-03T05:46:23.209Z,95110.41
2022-08-03T05:48:50.413Z,95104.25
2022-08-03T05:51:17.369Z,95118.91
2022-08-03T05:53:44.474Z,95115.09
2022-08-03T05:56:13.616Z,95125.22
2022-08-03T05:58:44.719Z,95118.97
2022-08-03T06:01:12.042Z,95127.25
2022-08-03T06:03:38.879Z,95127.59
2022-08-03T06:06:05.768Z,95115.38
2022-08-03T06:08:32.530Z,95137.41
2022-08-03T06:10:59.492Z,95133.00
2022-08-03T06:13:26.545Z,95124.56
2022-08-03T06:15:53.333Z,95142.31
2022-08-03T06:18:20.308Z,95130.28
2022-08-03T06:20:49.304Z,95140.03
2022-08-03T06:23:17.825Z,95135.72
2022-08-03T06:25:46.379Z,95139.34
2022-08-03T06:28:51.610Z,95124.47
2022-08-03T06:31:06.547Z,95131.84
2022-08-03T06:34:31.161Z,95136.94
2022-08-03T06:36:20.684Z,95106.94
2022-08-03T06:38:47.914Z,95123.75
2022-08-03T06:41:14.951Z,95137.63
2022-08-03T06:44:03.999Z,95129.34
2022-08-03T06:46:29.340Z,95132.38
2022-08-03T06:48:56.721Z,95128.81
2022-08-03T06:52:04.385Z,95130.81
2022-08-03T06:54:11.009Z,95132.19
2022-08-03T06:56:38.049Z,95134.81
2022-08-03T06:59:04.898Z,95119.38
2022-08-03T07:01:31.823Z,95112.47
2022-08-03T07:03:58.849Z,95118.59
2022-08-03T07:06:25.653Z,95121.91
2022-08-03T07:08:56.493Z,95123.34
2022-08-03T07:11:26.430Z,95130.69
2022-08-03T07:13:53.188Z,95120.16
2022-08-03T07:16:20.244Z,95119.88
2022-08-03T07:18:48.634Z,95130.41
2022-08-03T07:21:16.962Z,95112.66
2022-08-03T07:23:43.792Z,95128.06
2022-08-03T07:26:10.694Z,95123.34
2022-08-03T07:28:37.761Z,95131.91
2022-08-03T07:31:04.576Z,95130.06
2022-08-03T07:33:31.424Z,95130.84
2022-08-03T07:35:58.430Z,95124.00
2022-08-03T07:38:25.249Z,95129.84
2022-08-03T07:40:52.047Z,95130.72
2022-08-03T07:43:19.010Z,95131.25
2022-08-03T07:45:45.794Z,95132.19
2022-08-03T07:48:12.868Z,95133.94
2022-08-03T07:50:39.859Z,95136.75
2022-08-03T07:53:06.614Z,95127.03
2022-08-03T07:55:33.685Z,95133.16
2022-08-03T07:58:09.999Z,95138.00
2022-08-03T08:00:36.986Z,95137.44
2022-08-03T08:03:04.935Z,95131.47
2022-08-03T08:05:32.628Z,95136.19
2022-08-03T08:08:00.281Z,95144.94
2022-08-03T08:10:28.085Z,95133.00
2022-08-03T08:12:55.643Z,95131.75
2022-08-03T08:15:22.976Z,95140.84
2022-08-03T08:17:55.436Z,95147.84
2022-08-03T08:20:31.620Z,95148.28
2022-08-03T08:23:19.281Z,95149.44
2022-08-03T08:25:52.705Z,95152.88
2022-08-03T08:28:32.666Z,95133.16
2022-08-03T08:31:01.575Z,95118.81
2022-08-03T08:33:42.086Z,95140.94
2022-08-03T08:36:15.698Z,95142.75
2022-08-03T08:38:45.124Z,95140.97
2022-08-03T08:41:14.247Z,95137.94
2022-08-03T08:43:42.352Z,95133.16
2022-08-03T08:46:23.452Z,95138.75
2022-08-03T08:48:52.777Z,95136.63
2022-08-03T08:51:21.340Z,95140.72
2022-08-03T08:53:51.664Z,95129.41
2022-08-03T08:56:20.113Z,95134.31
2022-08-03T08:58:54.364Z,95140.16
2022-08-03T09:01:22.053Z,95133.25
2022-08-03T09:03:49.067Z,95128.78
2022-08-03T09:06:16.981Z,95137.84
2022-08-03T09:08:43.834Z,95131.03
2022-08-03T09:11:11.949Z,95136.00
2022-08-03T09:13:39.605Z,95123.72
2022-08-03T09:16:21.551Z,95131.59
2022-08-03T09:18:51.230Z,95122.00
2022-08-03T09:21:34.275Z,95139.06
2022-08-03T09:24:05.297Z,95139.78
2022-08-03T09:26:37.148Z,95129.81
2022-08-03T09:29:16.775Z,95132.41
2022-08-03T09:31:45.680Z,95126.31
2022-08-03T09:34:17.689Z,95136.78
2022-08-03T09:36:51.583Z,95135.28
2022-08-03T09:39:40.290Z,95134.25
2022-08-03T09:42:11.505Z,95136.53
2022-08-03T09:44:46.420Z,95135.38
2022-08-03T09:47:15.334Z,95130.44
2022-08-03T09:49:43.496Z,95134.91
2022-08-03T09:52:38.943Z,95143.75
2022-08-03T09:56:05.105Z,95126.53
2022-08-03T09:58:07.279Z,95137.25
2022-08-03T10:00:52.402Z,95132.28
2022-08-03T10:03:19.290Z,95130.00
2022-08-03T10:05:46.244Z,95124.22
2022-08-03T10:08:17.596Z,95120.22
2022-08-03T10:10:46.392Z,95113.97
2022-08-03T10:13:18.562Z,95121.09
2022-08-03T10:16:21.915Z,95109.25
2022-08-03T10:18:33.463Z,95118.19
2022-08-03T10:21:07.955Z,95122.63
2022-08-03T10:23:35.146Z,95107.41
2022-08-03T10:26:07.610Z,95113.38
2022-08-03T10:28:45.556Z,95099.81
2022-08-03T10:31:14.373Z,95103.00
2022-08-03T10:33:51.591Z,95101.19
2022-08-03T10:36:24.163Z,95096.22
2022-08-03T10:38:53.185Z,95108.09
2022-08-03T10:41:22.064Z,95092.25
2022-08-03T10:43:56.740Z,95099.25
2022-08-03T10:46:24.001Z,95101.66
2022-08-03T10:48:52.825Z,95093.28
2022-08-03T10:51:20.790Z,95097.38
2022-08-03T10:53:54.987Z,95092.72
2022-08-03T10:56:54.358Z,95092.22
2022-08-03T10:59:46.209Z,95089.94
2022-08-03T11:02:14.846Z,95098.56
2022-08-03T11:04:42.798Z,95087.78
2022-08-03T11:07:24.584Z,95090.66
2022-08-03T11:09:56.677Z,95095.16
2022-08-03T11:12:31.170Z,95091.75
2022-08-03T11:15:05.219Z,95097.00
2022-08-03T11:17:33.821Z,95083.63
2022-08-03T11:20:14.144Z,95087.22
2022-08-03T11:22:51.539Z,95080.59
2022-08-03T11:25:53.630Z,95086.06
2022-08-03T11:28:28.717Z,95082.88
2022-08-03T11:30:55.690Z,95080.72
2022-08-03T11:33:31.983Z,95074.75
2022-08-03T11:36:01.219Z,95073.41
2022-08-03T11:38:28.068Z,95070.47
2022-08-03T11:40:55.084Z,95064.91
2022-08-03T11:43:31.803Z,95065.13
2022-08-03T11:46:03.131Z,95048.28
2022-08-03T11:48:35.950Z,95057.38
2022-08-03T11:51:04.808Z,95058.97
2022-08-03T11:53:31.926Z,95061.09
2022-08-03T11:56:00.300Z,95066.44
2022-08-03T11:59:10.607Z,95058.88
2022-08-03T12:01:21.269Z,95052.91
2022-08-03T12:03:50.315Z,95062.22
2022-08-03T12:06:19.495Z,95061.50
2022-08-03T12:08:46.677Z,95052.97
2022-08-03T12:11:16.018Z,95052.97
2022-08-03T12:14:35.673Z,95051.41
2022-08-03T12:16:34.635Z,95031.59
2022-08-03T12:19:05.057Z,95048.84
2022-08-03T12:21:32.540Z,95048.78
2022-08-03T12:24:01.246Z,95038.63
2022-08-03T12:26:30.013Z,95042.03
2022-08-03T12:28:58.484Z,95043.34
2022-08-03T12:31:25.881Z,95047.72
2022-08-03T12:34:03.402Z,95045.50
2022-08-03T12:36:33.037Z,95042.69
2022-08-03T12:39:08.310Z,95044.38
2022-08-03T12:41:39.893Z,95031.22
2022-08-03T12:44:08.784Z,95043.06
2022-08-03T12:46:45.386Z,95033.22
2022-08-03T12:49:19.530Z,95040.78
2022-08-03T12:51:46.328Z,95038.94
2022-08-03T12:54:18.957Z,95036.09
2022-08-03T12:57:05.082Z,95036.50
2022-08-03T12:59:40.847Z,95029.69
2022-08-03T13:02:28.046Z,95035.09
2022-08-03T13:04:55.356Z,95039.88
2022-08-03T13:07:23.214Z,95037.47
2022-08-03T13:09:55.916Z,95026.16
2022-08-03T13:12:24.946Z,95022.56
2022-08-03T13:14:55.031Z,95006.53
2022-08-03T13:17:22.316Z,95023.63
2022-08-03T13:19:50.304Z,95025.06
2022-08-03T13:22:18.489Z,95022.66
2022-08-03T13:24:46.890Z,95012.31
2022-08-03T13:28:01.990Z,95018.66
2022-08-03T13:30:01.508Z,95013.41
2022-08-03T13:32:28.390Z,95013.81
2022-08-03T13:34:55.269Z,95014.16
2022-08-03T13:37:22.567Z,95022.56
2022-08-03T13:40:00.166Z,95013.63
2022-08-03T13:42:32.399Z,95016.84
2022-08-03T13:45:00.775Z,95011.47
2022-08-03T13:47:28.141Z,95005.69
2022-08-03T13:50:01.629Z,95003.69
2022-08-03T13:52:31.173Z,94999.09
2022-08-03T13:54:58.774Z,95002.94
2022-08-03T13:58:11.638Z,95005.28
2022-08-03T14:00:13.105Z,94999.59
2022-08-03T14:02:55.328Z,95003.34
2022-08-03T14:05:26.202Z,95008.63
2022-08-03T14:07:53.019Z,95009.47
2022-08-03T14:10:25.185Z,95002.25
2022-08-03T14:12:52.231Z,95001.88
2022-08-03T14:15:19.109Z,94998.63
2022-08-03T14:17:50.205Z,94993.84
2022-08-03T14:20:36.225Z,94989.97
2022-08-03T14:23:04.050Z,94999.28
2022-08-03T14:25:49.865Z,94997.63
2022-08-03T14:28:19.074Z,94994.16
2022-08-03T14:30:46.565Z,95001.28
2022-08-03T14:33:13.540Z,95000.44
2022-08-03T14:35:40.850Z,95004.97
2022-08-03T14:38:07.662Z,94994.25
2022-08-03T14:40:34.653Z,94993.25
2022-08-03T14:43:02.448Z,94996.47
2022-08-03T14:45:29.332Z,94994.94
2022-08-03T14:50:33.249Z,94995.16
2022-08-03T14:50:46.998Z,94986.09
2022-08-03T14:53:17.743Z,94995.00
2022-08-03T14:55:49.596Z,94986.41
2022-08-03T14:58:21.990Z,94979.72
2022-08-03T15:00:50.753Z,94988.97
2022-08-03T15:03:20.505Z,94979.50
2022-08-03T15:05:47.784Z,94982.50
2022-08-03T15:08:14.701Z,94980.28
2022-08-03T15:10:44.508Z,94978.88
2022-08-03T15:13:15.578Z,94984.69
2022-08-03T15:15:42.882Z,94980.66
2022-08-03T15:18:09.865Z,94982.44
2022-08-03T15:20:44.299Z,94990.22
2022-08-03T15:23:13.319Z,94982.28
2022-08-03T15:30:10.077Z,94998.50
2022-08-03T15:32:37.236Z,95010.34
2022-08-03T15:35:04.457Z,95005.22
2022-08-03T15:37:31.188Z,94993.50
2022-08-03T15:39:59.009Z,95002.41
2022-08-03T15:42:31.210Z,94996.78
2022-08-03T15:44:58.824Z,94986.13
2022-08-03T15:47:25.913Z,94989.88
2022-08-03T15:49:52.784Z,94985.44
2022-08-03T15:52:19.531Z,94984.06
2022-08-03T15:54:46.261Z,94991.91
2022-08-03T15:57:13.164Z,95002.72
2022-08-03T15:59:39.935Z,95008.97
2022-08-03T16:02:06.754Z,95007.56
2022-08-03T16:04:33.757Z,95020.38
2022-08-03T16:07:00.695Z,95008.75
2022-08-03T16:09:42.217Z,95015.78
2022-08-03T16:12:11.750Z,95017.84
2022-08-03T16:14:51.791Z,95011.69
2022-08-03T16:17:19.212Z,95015.88
2022-08-03T16:19:46.212Z,95003.47
2022-08-03T16:22:14.327Z,95013.84
2022-08-03T16:24:41.509Z,95012.75
2022-08-03T16:27:17.652Z,95015.06
2022-08-03T16:29:55.248Z,95026.88
2022-08-03T16:32:22.051Z,95020.97
2022-08-03T16:34:48.995Z,95031.56
2022-08-03T16:37:37.617Z,95019.03
2022-08-03T16:40:03.842Z,95016.63
2022-08-03T16:42:30.744Z,95025.19
2022-08-03T16:44:57.632Z,95033.25
2022-08-03T16:47:24.538Z,95040.00
2022-08-03T16:49:54.161Z,95042.19
2022-08-03T16:52:23.905Z,95045.72
2022-08-03T16:54:52.963Z,95042.44
2022-08-03T16:57:59.960Z,95049.78
2022-08-03T17:00:33.182Z,95033.94
2022-08-03T17:03:04.318Z,95043.56
2022-08-03T17:05:43.911Z,95040.91
2022-08-03T17:08:14.502Z,95041.97
2022-08-03T17:10:45.562Z,95041.66
2022-08-03T17:13:21.929Z,95044.00
2022-08-03T17:15:58.638Z,95033.38
2022-08-03T17:18:33.173Z,95041.03
2022-08-03T17:21:03.481Z,95036.66
2022-08-03T17:23:42.310Z,95043.81
2022-08-03T17:26:21.200Z,95046.63
2022-08-03T17:28:57.327Z,95036.63
2022-08-03T17:31:31.142Z,95038.31
2022-08-03T17:34:01.995Z,95034.81
2022-08-03T17:37:02.209Z,95041.13
2022-08-03T17:39:27.050Z,95033.28
2022-08-03T17:42:05.387Z,95036.53
2022-08-03T17:44:53.883Z,95038.34
2022-08-03T17:47:21.561Z,95038.59
2022-08-03T17:49:48.561Z,95037.00
2022-08-03T17:52:30.840Z,95043.66
2022-08-03T17:55:56.779Z,95036.56
2022-08-03T17:58:13.909Z,95033.72
2022-08-03T18:01:04.573Z,95030.97
2022-08-03T18:03:59.766Z,95040.06
2022-08-03T18:06:31.215Z,95033.78
2022-08-03T18:11:51.252Z,95037.47
2022-08-03T18:14:32.077Z,95049.84
2022-08-03T18:17:10.257Z,95051.72
2022-08-03T18:20:03.530Z,95053.41
2022-08-03T18:22:28.284Z,95048.31
2022-08-03T18:24:59.118Z,95054.00
2022-08-03T18:27:42.437Z,95064.56
2022-08-03T18:30:13.713Z,95069.78
2022-08-03T18:32:43.709Z,95072.22
2022-08-03T18:35:53.717Z,95070.63
2022-08-03T18:38:18.808Z,95068.63
2022-08-03T18:40:48.744Z,95062.91
2022-08-03T18:43:17.587Z,95072.31
2022-08-03T18:45:57.462Z,95072.09
2022-08-03T18:48:35.810Z,95075.31
2022-08-03T18:51:10.787Z,95081.03
2022-08-03T18:54:02.952Z,95087.84
2022-08-03T18:56:38.217Z,95086.50
2022-08-03T18:59:09.905Z,95087.13
2022-08-03T19:01:58.349Z,95088.25
2022-08-03T19:04:55.251Z,95092.69
2022-08-03T19:07:27.552Z,95093.91
2022-08-03T19:10:10.824Z,95087.72
2022-08-03T19:12:53.264Z,95090.66
2022-08-03T19:15:36.478Z,95096.25
2022-08-03T19:18:11.243Z,95095.25
2022-08-03T19:20:38.439Z,95113.16
2022-08-03T19:23:06.580Z,95112.22
2022-08-03T19:25:38.727Z,95104.34
2022-08-03T19:28:07.679Z,95108.06
2022-08-03T19:30:38.965Z,95100.19
2022-08-03T19:33:12.432Z,95107.13
2022-08-03T19:35:51.595Z,95100.03
2022-08-03T19:38:28.594Z,95102.72
2022-08-03T19:41:00.028Z,95098.88
2022-08-03T19:43:49.299Z,95102.59
2022-08-03T19:46:22.624Z,95097.41
2022-08-03T19:49:03.051Z,95104.56
2022-08-03T19:52:02.159Z,95100.34
2022-08-03T19:54:29.957Z,95096.94
2022-08-03T19:57:01.857Z,95103.28
2022-08-03T19:59:32.832Z,95098.56
2022-08-03T20:01:59.608Z,95104.91
2022-08-03T20:04:26.581Z,95096.03
2022-08-03T20:06:57.118Z,95098.22
2022-08-03T20:09:24.501Z,95094.28
2022-08-03T20:12:04.021Z,95092.19
2022-08-03T20:14:32.100Z,95090.88
2022-08-03T20:16:59.154Z,95085.63
2022-08-03T20:19:32.709Z,95090.66
2022-08-03T20:22:02.374Z,95094.06
2022-08-03T20:24:34.471Z,95093.03
2022-08-03T20:27:07.846Z,95093.06
2022-08-03T20:30:04.955Z,95090.44
2022-08-03T20:32:25.560Z,95102.59
2022-08-03T20:34:52.973Z,95107.88
2022-08-03T20:37:20.326Z,95106.06
2022-08-03T20:39:49.787Z,95101.63
2022-08-03T20:42:21.178Z,95109.00
2022-08-03T20:45:04.374Z,95104.28
2022-08-03T20:47:35.877Z,95112.47
2022-08-03T20:50:04.185Z,95111.16
2022-08-03T20:52:43.988Z,95103.84
2022-08-03T20:55:18.739Z,95108.56
2022-08-03T20:58:05.501Z,95107.00
2022-08-03T21:00:32.567Z,95106.00
2022-08-03T21:02:59.371Z,95108.63
2022-08-03T21:05:47.932Z,95107.53
2022-08-03T21:08:16.038Z,95117.56
2022-08-03T21:10:45.607Z,95119.13
2022-08-03T21:12:56.883Z,95030.28
2022-08-03T21:13:32.382Z,95116.78
2022-08-03T21:16:11.414Z,95124.97
2022-08-03T21:18:52.860Z,95127.34
2022-08-03T21:21:23.217Z,95129.19
2022-08-03T21:23:54.902Z,95133.44
2022-08-03T21:26:24.348Z,95129.25
2022-08-03T21:28:53.487Z,95131.88
2022-08-03T21:31:25.390Z,95125.81
2022-08-03T21:34:01.984Z,95136.06
2022-08-03T21:36:33.447Z,95136.34
2022-08-03T21:39:01.213Z,95133.44
2022-08-03T21:41:30.674Z,95135.00
2022-08-03T21:43:58.446Z,95147.06
2022-08-03T21:46:29.602Z,95150.25
2022-08-03T21:49:52.033Z,95151.25
2022-08-03T21:51:50.330Z,95148.09
2022-08-03T21:54:20.448Z,95148.63
2022-08-03T21:56:50.162Z,95149.16
2022-08-03T21:59:19.388Z,95148.88
2022-08-03T22:01:49.179Z,95146.53
2022-08-03T22:04:50.997Z,95142.84
2022-08-03T22:07:10.000Z,95132.31
2022-08-03T22:09:37.336Z,95140.22
2022-08-03T22:12:04.655Z,95143.34
2022-08-03T22:14:34.619Z,95131.75
2022-08-03T22:17:03.387Z,95139.66
2022-08-03T22:19:34.170Z,95147.81
2022-08-03T22:22:06.169Z,95143.28
2022-08-03T22:24:36.717Z,95153.78
2022-08-03T22:27:23.071Z,95141.16
2022-08-03T22:29:51.799Z,95149.06
2022-08-03T22:32:19.137Z,95153.50
2022-08-03T22:34:48.774Z,95150.59
2022-08-03T22:37:21.156Z,95154.31
2022-08-03T22:39:49.839Z,95150.63
2022-08-03T22:42:19.344Z,95155.38
2022-08-03T22:44:51.078Z,95144.88
2022-08-03T22:47:22.564Z,95151.19
2022-08-03T22:50:32.429Z,95146.97
2022-08-03T22:52:40.823Z,95146.69
2022-08-03T22:55:11.447Z,95154.84
2022-08-03T22:57:45.730Z,95147.97
2022-08-03T23:00:22.544Z,95147.44
2022-08-03T23:02:52.031Z,95146.38
2022-08-03T23:06:01.020Z,95149.75
2022-08-03T23:08:20.800Z,95148.19
2022-08-03T23:10:48.801Z,95143.69
2022-08-03T23:13:17.917Z,95147.88
2022-08-03T23:16:06.395Z,95156.22
2022-08-03T23:18:39.681Z,95148.53
2022-08-03T23:21:11.009Z,95150.84
2022-08-03T23:23:44.490Z,95151.31
2022-08-03T23:26:15.579Z,95155.00
2022-08-03T23:28:46.886Z,95154.22
2022-08-03T23:31:15.186Z,95146.09
2022-08-03T23:33:45.692Z,95156.09
2022-08-03T23:36:30.954Z,95156.88
2022-08-03T23:39:02.306Z,95136.59
2022-08-03T23:41:30.666Z,95153.41
2022-08-03T23:44:00.747Z,95153.94
2022-08-03T23:46:30.545Z,95153.34
2022-08-03T23:48:58.836Z,95152.25
2022-08-03T23:51:41.242Z,95153.78
2022-08-03T23:54:39.057Z,95151.22
2022-08-03T23:57:22.577Z,95155.91
